< Cyclone 196312 1963 Season Cyclone 196316 >
Cyclone 196314 (unnamed)
General InformationTrack Information on Google Maps || ResourceGoogle EarthGE AnimationAtom FeedGeoJSON
Detalied Best Track (Time Zone = UTC)
Year Month Day Hour Lat. Long. Pressure (hPa) Wind (kt) Class Image Chart
1963 1 21 01 -10.9 101.0 1007 0 0 -- --
1963 1 21 04 -11.2 101.0 1006 0 0 -- --
1963 1 21 07 -11.5 101.0 1005 0 0 -- --
1963 1 21 10 -11.9 101.0 1004 0 0 -- --
1963 1 21 16 -12.7 101.0 1003 0 0 -- --
1963 1 21 19 -13.1 101.0 1002 0 0 -- --
1963 1 21 22 -13.5 101.0 1001 0 0 -- --
1963 1 22 01 -13.9 101.0 1000 0 0 -- --
1963 1 22 04 -14.0 101.1 1000 0 0 -- --
1963 1 22 07 -14.2 101.3 1000 0 0 -- --
1963 1 22 10 -14.3 101.4 1001 0 0 -- --
1963 1 22 16 -14.6 101.7 1001 0 0 -- --
1963 1 22 19 -14.7 101.8 1001 0 0 -- --
1963 1 22 22 -14.8 101.9 1002 0 0 -- --
1963 1 23 01 -14.9 102.0 1002 0 0 -- --
1963 1 23 04 -15.0 102.3 1002 0 0 -- --
1963 1 23 07 -15.2 102.6 1002 0 0 -- --
1963 1 23 10 -15.3 103.0 1002 0 0 -- --
1963 1 23 16 -15.6 103.8 1002 0 0 -- --
1963 1 23 19 -15.7 104.2 1002 0 0 -- --
1963 1 23 22 -15.8 104.6 1002 0 0 -- --
1963 1 24 01 -15.9 105.0 1002 0 0 -- --
1963 1 24 04 -16.1 105.4 1002 0 0 -- --
1963 1 24 07 -16.3 105.8 1002 0 0 -- --
1963 1 24 16 -16.7 106.6 1002 0 0 -- --
1963 1 24 19 -16.9 107.0 1002 0 0 -- --
< Cyclone 196312 1963 Season Cyclone 196316 >

Help